Time;durP1;ratioP1;P1;durP2;ratioP2;P2;SDS_P1;SDS_P2;PMS_P1;PMS_P2;Temp;Humidity;BMP_temperature;BMP_pressure;BME280_temperature;BME280_humidity;BME280_pressure;Samples;Min_cycle;Max_cycle;Signal;HPM_P1;HPM_P2
2023/10/30 00:01:07;;;;;;;1.85;0.60;;;19.50;74.50;;;;;;6258091;22;44905;-67
2023/10/30 00:03:44;;;;;;;1.00;0.65;;;19.50;74.70;;;;;;6072723;22;46151;-70
2023/10/30 00:06:34;;;;;;;2.85;0.68;;;19.50;74.80;;;;;;6098024;22;44871;-69
2023/10/30 00:09:02;;;;;;;2.00;0.60;;;19.50;74.90;;;;;;6092538;22;45204;-69
2023/10/30 00:11:29;;;;;;;1.33;0.50;;;19.50;75.00;;;;;;6086185;22;45196;-69
2023/10/30 00:14:08;;;;;;;2.38;0.50;;;19.50;75.00;;;;;;6105030;22;46243;-69
2023/10/30 00:16:50;;;;;;;1.65;0.50;;;19.50;75.00;;;;;;6087648;22;44886;-69
2023/10/30 00:19:43;;;;;;;3.50;0.80;;;19.50;75.10;;;;;;6177967;22;45138;-69
2023/10/30 00:22:21;;;;;;;1.00;0.40;;;19.50;75.20;;;;;;6147848;22;45413;-69
2023/10/30 00:25:16;;;;;;;1.33;0.52;;;19.50;75.40;;;;;;6157126;22;47507;-68
2023/10/30 00:27:43;;;;;;;2.20;0.73;;;19.50;75.40;;;;;;6145097;22;45212;-69
2023/10/30 00:30:13;;;;;;;3.67;0.82;;;19.50;75.40;;;;;;6154637;22;45026;-69
2023/10/30 00:35:20;;;;;;;2.85;0.60;;;19.50;75.30;;;;;;6150959;22;45148;-69
2023/10/30 00:38:03;;;;;;;2.17;0.70;;;19.50;75.20;;;;;;6181541;22;45342;-69
2023/10/30 00:40:30;;;;;;;2.70;0.82;;;19.50;75.30;;;;;;6202639;22;45210;-69
2023/10/30 00:43:19;;;;;;;2.85;0.50;;;19.60;75.30;;;;;;6225118;22;45036;-69
2023/10/30 00:45:48;;;;;;;3.88;0.85;;;19.60;75.40;;;;;;6236341;22;47189;-69
2023/10/30 00:48:38;;;;;;;1.50;0.40;;;19.60;75.40;;;;;;6251558;22;45165;-69
2023/10/30 00:51:15;;;;;;;1.10;0.68;;;19.60;75.40;;;;;;6267332;22;45158;-69
2023/10/30 00:53:51;;;;;;;1.85;0.50;;;19.60;75.40;;;;;;6269651;22;45126;-69
2023/10/30 00:56:32;;;;;;;5.05;0.77;;;19.60;75.40;;;;;;6272451;22;46223;-69
2023/10/30 01:00:04;;;;;;;1.63;0.70;;;19.60;75.30;;;;;;6270069;22;45173;-69
2023/10/30 01:03:02;;;;;;;2.63;0.68;;;19.60;75.30;;;;;;6278491;22;45097;-68
2023/10/30 01:05:32;;;;;;;3.63;0.70;;;19.60;75.30;;;;;;6276240;22;44844;-69
2023/10/30 01:07:58;;;;;;;2.58;0.70;;;19.60;75.50;;;;;;6271522;22;47359;-69
2023/10/30 01:10:47;;;;;;;3.63;0.82;;;19.50;75.30;;;;;;6274345;22;44998;-69
2023/10/30 01:13:27;;;;;;;2.35;0.80;;;19.50;75.40;;;;;;6266403;22;45164;-69
2023/10/30 01:18:59;;;;;;;0.90;0.60;;;19.60;75.60;;;;;;6241250;22;45175;-69
2023/10/30 01:22:01;;;;;;;2.08;0.50;;;19.50;75.60;;;;;;6247331;22;45202;-69
2023/10/30 01:24:45;;;;;;;1.55;0.40;;;19.50;75.60;;;;;;6248035;22;44756;-69
2023/10/30 01:29:53;;;;;;;1.17;0.50;;;19.50;75.60;;;;;;6231838;22;46243;-69
2023/10/30 01:32:20;;;;;;;1.42;0.50;;;19.50;75.60;;;;;;6255036;22;45853;-69
2023/10/30 01:38:21;;;;;;;2.78;0.80;;;19.60;75.60;;;;;;6228207;22;45191;-69
2023/10/30 01:40:49;;;;;;;3.15;0.60;;;19.50;75.40;;;;;;6260348;22;45064;-69
2023/10/30 01:46:10;;;;;;;1.25;0.57;;;19.50;75.30;;;;;;6123212;22;45098;-68
2023/10/30 01:49:02;;;;;;;3.63;0.75;;;19.60;75.40;;;;;;6159751;22;45128;-67
2023/10/30 01:51:29;;;;;;;2.25;0.55;;;19.60;75.40;;;;;;6135137;22;45205;-68
2023/10/30 01:54:09;;;;;;;3.00;0.70;;;19.60;75.40;;;;;;6141662;22;45133;-68
2023/10/30 01:56:51;;;;;;;2.83;0.60;;;19.60;75.40;;;;;;6150930;22;45088;-67
2023/10/30 01:59:44;;;;;;;1.38;0.50;;;19.60;75.40;;;;;;6143069;22;45078;-68
2023/10/30 02:02:11;;;;;;;1.52;0.50;;;19.50;75.20;;;;;;6137268;22;46251;-68
2023/10/30 02:04:51;;;;;;;2.70;0.52;;;19.60;75.50;;;;;;6146716;22;45065;-68
2023/10/30 02:11:20;;;;;;;2.08;0.70;;;19.60;75.40;;;;;;6111157;22;44984;-68
2023/10/30 02:14:13;;;;;;;2.13;0.60;;;19.60;75.60;;;;;;6150414;22;46350;-67
2023/10/30 02:17:03;;;;;;;1.35;0.65;;;19.60;75.60;;;;;;6139006;22;45142;-68
2023/10/30 02:19:30;;;;;;;2.35;0.60;;;19.50;75.50;;;;;;6146727;22;44669;-68
2023/10/30 02:22:28;;;;;;;1.95;0.63;;;19.60;75.70;;;;;;6141907;22;45032;-68
2023/10/30 02:24:54;;;;;;;3.05;0.77;;;19.50;75.60;;;;;;6132358;22;46307;-68
2023/10/30 02:27:23;;;;;;;2.42;0.47;;;19.50;75.60;;;;;;6163996;22;45056;-68
2023/10/30 02:29:50;;;;;;;2.42;0.50;;;19.50;75.70;;;;;;6127571;22;44810;-68
2023/10/30 02:32:42;;;;;;;2.15;0.50;;;19.50;75.60;;;;;;6142525;22;45045;-68
2023/10/30 02:35:36;;;;;;;2.63;0.50;;;19.50;75.70;;;;;;6146788;22;46273;-68
2023/10/30 02:38:16;;;;;;;1.15;0.52;;;19.50;75.60;;;;;;6144179;22;45076;-68
2023/10/30 02:40:42;;;;;;;2.38;0.75;;;19.50;75.60;;;;;;6150019;22;45152;-68
2023/10/30 02:46:12;;;;;;;1.65;0.60;;;19.50;75.40;;;;;;6157414;22;45214;-68
2023/10/30 02:48:40;;;;;;;2.63;0.80;;;19.50;75.40;;;;;;6134962;22;45056;-68
2023/10/30 02:51:29;;;;;;;2.05;0.82;;;19.50;75.50;;;;;;6130301;22;45124;-68
2023/10/30 02:54:30;;;;;;;3.05;0.80;;;19.50;75.40;;;;;;6136693;22;45368;-68
2023/10/30 02:57:07;;;;;;;2.17;0.70;;;19.50;75.40;;;;;;6127944;22;46318;-68
2023/10/30 03:03:31;;;;;;;2.40;0.73;;;19.60;75.50;;;;;;6103502;22;45307;-68
2023/10/30 03:06:40;;;;;;;3.00;0.75;;;19.60;75.30;;;;;;6121168;22;45056;-67
2023/10/30 03:09:30;;;;;;;0.88;0.50;;;19.50;76.30;;;;;;6152026;22;46222;-67
2023/10/30 03:12:19;;;;;;;1.65;0.52;;;19.60;75.30;;;;;;6146899;22;45143;-68
2023/10/30 03:14:57;;;;;;;2.03;0.57;;;19.60;75.30;;;;;;6141901;22;45320;-68
2023/10/30 03:17:47;;;;;;;3.63;0.70;;;19.60;75.40;;;;;;6137368;22;45046;-68
2023/10/30 03:20:42;;;;;;;2.20;0.70;;;19.60;75.50;;;;;;6162730;22;45985;-68
2023/10/30 03:23:10;;;;;;;1.58;0.50;;;19.60;75.50;;;;;;6136217;22;45392;-68
2023/10/30 03:25:55;;;;;;;1.30;0.50;;;19.50;75.60;;;;;;6140351;22;45177;-68
2023/10/30 03:28:33;;;;;;;1.83;0.60;;;19.50;75.50;;;;;;6135754;22;45276;-68
2023/10/30 03:31:12;;;;;;;1.08;0.55;;;19.50;75.60;;;;;;6159416;22;46166;-68
2023/10/30 03:33:51;;;;;;;1.70;0.35;;;19.50;75.60;;;;;;6150559;22;45079;-68
2023/10/30 03:36:56;;;;;;;2.13;0.60;;;19.50;75.70;;;;;;6157279;22;44826;-68
2023/10/30 03:39:48;;;;;;;1.95;0.65;;;19.50;76.60;;;;;;6160406;22;45320;-68
2023/10/30 03:42:15;;;;;;;2.72;0.68;;;19.50;75.70;;;;;;6151494;22;46472;-68
2023/10/30 03:44:43;;;;;;;2.17;0.40;;;19.50;75.70;;;;;;6146154;22;45218;-68
2023/10/30 03:47:11;;;;;;;2.35;0.50;;;19.50;75.60;;;;;;6172046;22;45046;-68
2023/10/30 03:50:08;;;;;;;1.00;0.60;;;19.50;75.60;;;;;;6180139;22;44996;-68
2023/10/30 03:52:38;;;;;;;2.42;0.52;;;19.50;75.40;;;;;;6178220;22;46510;-68
2023/10/30 03:55:27;;;;;;;1.83;0.68;;;19.50;75.30;;;;;;6183374;22;45251;-68
2023/10/30 03:58:06;;;;;;;2.83;0.60;;;19.50;75.20;;;;;;6177689;22;45036;-68
2023/10/30 04:00:51;;;;;;;2.00;0.52;;;19.50;75.30;;;;;;6192990;22;45155;-67
2023/10/30 04:03:39;;;;;;;2.58;0.80;;;19.50;75.10;;;;;;6186396;22;45197;-68
2023/10/30 04:06:26;;;;;;;2.80;0.80;;;19.50;75.10;;;;;;6193335;22;45246;-68
2023/10/30 04:09:06;;;;;;;2.63;1.02;;;19.50;75.10;;;;;;6195558;22;45025;-68
2023/10/30 04:11:33;;;;;;;3.10;0.70;;;19.50;75.10;;;;;;6203908;22;45222;-68
2023/10/30 04:14:01;;;;;;;3.03;0.88;;;19.50;75.00;;;;;;6206959;22;46382;-68
2023/10/30 04:16:50;;;;;;;2.22;0.93;;;19.60;75.10;;;;;;6208135;22;45198;-67
2023/10/30 04:19:41;;;;;;;1.60;0.70;;;19.50;75.00;;;;;;6209056;22;45139;-67
2023/10/30 04:22:29;;;;;;;1.65;0.65;;;19.50;75.00;;;;;;6202841;22;45205;-67
2023/10/30 04:25:30;;;;;;;3.97;0.70;;;19.50;75.10;;;;;;6200669;22;46216;-68
2023/10/30 04:28:23;;;;;;;2.03;0.65;;;19.50;75.10;;;;;;6204669;22;45103;-67
2023/10/30 04:31:13;;;;;;;3.15;0.60;;;19.50;75.20;;;;;;6209307;22;45086;-68
2023/10/30 04:34:06;;;;;;;2.20;0.82;;;19.50;75.30;;;;;;6205084;22;45112;-67
2023/10/30 04:36:33;;;;;;;1.35;0.60;;;19.50;75.40;;;;;;6213865;22;46844;-68
2023/10/30 04:38:59;;;;;;;1.58;0.60;;;19.50;75.50;;;;;;6215534;22;45207;-68
2023/10/30 04:41:41;;;;;;;3.70;0.68;;;19.50;75.60;;;;;;6216070;22;45203;-68
2023/10/30 04:44:34;;;;;;;2.45;0.52;;;19.50;75.60;;;;;;6228849;22;45254;-67
2023/10/30 04:47:01;;;;;;;1.55;0.68;;;19.50;75.50;;;;;;6226714;22;46384;-68
2023/10/30 04:49:58;;;;;;;2.47;0.73;;;19.50;75.50;;;;;;6242345;22;45193;-68
2023/10/30 04:52:52;;;;;;;3.40;0.77;;;19.50;75.40;;;;;;6258537;22;45256;-67
2023/10/30 04:55:20;;;;;;;3.78;0.88;;;19.50;75.40;;;;;;6246092;22;44866;-68
2023/10/30 05:01:20;;;;;;;3.85;0.65;;;19.50;75.40;;;;;;6253732;22;45001;-67
2023/10/30 05:04:17;;;;;;;3.40;0.70;;;19.50;75.20;;;;;;6259138;22;45022;-67
2023/10/30 05:06:46;;;;;;;3.92;0.90;;;19.50;75.20;;;;;;6264097;22;45106;-68
2023/10/30 05:09:29;;;;;;;2.92;0.80;;;19.50;75.30;;;;;;6258541;22;47442;-67
2023/10/30 05:12:13;;;;;;;2.45;0.70;;;19.50;75.20;;;;;;6263092;22;45067;-67
2023/10/30 05:14:41;;;;;;;1.70;0.60;;;19.50;75.40;;;;;;6258470;22;45086;-67
2023/10/30 05:17:38;;;;;;;2.10;0.50;;;19.50;75.40;;;;;;6265727;22;45044;-67
2023/10/30 05:20:27;;;;;;;2.53;0.70;;;19.50;75.30;;;;;;6275271;22;45575;-67
2023/10/30 05:22:57;;;;;;;2.05;0.70;;;19.50;75.40;;;;;;6265063;22;45253;-68
2023/10/30 05:25:58;;;;;;;1.88;0.52;;;19.50;75.40;;;;;;6214630;22;45190;-67
2023/10/30 05:28:46;;;;;;;0.90;0.60;;;19.50;75.40;;;;;;6239295;22;45252;-67
2023/10/30 05:31:30;;;;;;;1.70;0.52;;;19.50;75.50;;;;;;6254216;22;46511;-67
2023/10/30 05:37:27;;;;;;;3.75;0.75;;;19.50;75.80;;;;;;6261225;22;45280;-67
2023/10/30 05:40:11;;;;;;;1.98;0.68;;;19.50;75.90;;;;;;6270685;22;45303;-67
2023/10/30 05:43:15;;;;;;;3.65;0.60;;;19.40;75.80;;;;;;6272827;22;46529;-67
2023/10/30 05:45:42;;;;;;;1.30;0.60;;;19.50;75.90;;;;;;6288707;22;45048;-66
2023/10/30 05:48:12;;;;;;;0.75;0.47;;;19.40;75.90;;;;;;6295377;22;45150;-66
2023/10/30 05:50:59;;;;;;;3.60;0.65;;;19.40;76.10;;;;;;6295234;22;44993;-66
2023/10/30 05:56:33;;;;;;;1.83;0.40;;;19.40;76.50;;;;;;6204397;22;45056;-67
2023/10/30 05:59:00;;;;;;;1.70;0.52;;;19.40;76.80;;;;;;6248602;22;45144;-67
2023/10/30 06:01:41;;;;;;;2.10;0.60;;;19.40;76.80;;;;;;6255975;22;45132;-67
2023/10/30 06:04:46;;;;;;;3.22;0.50;;;19.50;77.00;;;;;;6270671;22;46298;-66
2023/10/30 06:07:13;;;;;;;3.47;0.80;;;19.50;77.00;;;;;;6241200;22;45068;-67
2023/10/30 06:09:40;;;;;;;0.90;0.38;;;19.50;77.00;;;;;;6212377;22;45219;-68
2023/10/30 06:12:37;;;;;;;1.60;0.50;;;19.50;77.00;;;;;;6084836;22;45226;-70
2023/10/30 06:15:17;;;;;;;1.65;0.60;;;19.50;77.00;;;;;;6080628;22;47299;-69
2023/10/30 06:17:44;;;;;;;1.42;0.57;;;19.40;76.90;;;;;;6268416;22;45089;-68
2023/10/30 06:20:13;;;;;;;1.50;0.50;;;19.50;77.00;;;;;;6305740;22;45182;-67
2023/10/30 06:23:05;;;;;;;2.97;0.45;;;19.50;76.90;;;;;;6256091;22;45050;-70
2023/10/30 06:25:32;;;;;;;1.23;0.50;;;19.50;77.00;;;;;;6056340;22;46307;-70
2023/10/30 06:28:12;;;;;;;2.58;0.60;;;19.50;76.40;;;;;;6266978;22;45058;-69
2023/10/30 06:30:46;;;;;;;3.13;0.73;;;19.50;74.70;;;;;;6153448;22;45181;-66
2023/10/30 06:33:18;;;;;;;2.33;0.70;;;19.50;73.40;;;;;;6041936;22;45079;-67
2023/10/30 06:36:16;;;;;;;1.02;0.65;;;19.50;72.70;;;;;;6071289;22;46254;-67
2023/10/30 06:39:06;;;;;;;2.72;0.70;;;19.40;71.10;;;;;;6045772;22;45577;-67
2023/10/30 06:44:44;;;;;;;2.55;0.80;;;19.40;70.00;;;;;;6065753;22;45012;-67
2023/10/30 06:47:11;;;;;;;3.63;0.75;;;19.40;69.70;;;;;;6067203;22;46626;-67
2023/10/30 06:49:55;;;;;;;2.58;0.65;;;19.30;70.00;;;;;;6071828;22;45135;-66
2023/10/30 06:52:57;;;;;;;2.45;0.88;;;19.30;69.40;;;;;;6068172;22;45165;-68
2023/10/30 06:55:38;;;;;;;3.65;0.68;;;19.30;69.30;;;;;;6063009;22;45486;-67
2023/10/30 06:58:33;;;;;;;3.22;0.98;;;19.30;70.40;;;;;;6066709;22;45722;-67
2023/10/30 07:01:16;;;;;;;2.13;0.80;;;19.30;71.70;;;;;;6065624;22;44816;-68
2023/10/30 07:03:51;;;;;;;1.92;0.57;;;19.40;72.20;;;;;;6081543;22;45407;-67
2023/10/30 07:06:50;;;;;;;2.15;0.60;;;19.30;72.40;;;;;;6070529;22;45402;-68
2023/10/30 07:09:20;;;;;;;1.25;0.50;;;19.40;72.90;;;;;;6046182;22;46257;-67
2023/10/30 07:11:46;;;;;;;1.27;0.60;;;19.40;72.90;;;;;;6061512;22;45141;-67
2023/10/30 07:14:40;;;;;;;2.90;0.65;;;19.40;73.00;;;;;;6032846;22;45043;-67
2023/10/30 07:17:25;;;;;;;1.50;0.60;;;19.40;73.30;;;;;;6065974;22;45120;-67
2023/10/30 07:20:19;;;;;;;1.90;0.73;;;19.40;73.70;;;;;;6064694;22;46198;-68
2023/10/30 07:22:46;;;;;;;1.52;0.63;;;19.40;73.80;;;;;;6056504;22;45047;-68
2023/10/30 07:25:26;;;;;;;1.88;0.50;;;19.40;74.00;;;;;;6036595;22;45428;-68
2023/10/30 07:28:07;;;;;;;2.03;0.57;;;19.40;74.10;;;;;;6043947;22;45150;-67
2023/10/30 07:30:33;;;;;;;2.45;0.90;;;19.40;74.10;;;;;;6023485;22;46205;-67
2023/10/30 07:33:13;;;;;;;1.77;0.80;;;19.40;73.90;;;;;;6069696;22;45165;-68
2023/10/30 07:36:02;;;;;;;2.13;0.63;;;19.40;74.00;;;;;;6057504;22;45358;-67
2023/10/30 07:38:57;;;;;;;2.00;0.60;;;19.50;74.00;;;;;;6077481;22;44728;-68
2023/10/30 07:41:26;;;;;;;0.77;0.45;;;19.40;74.40;;;;;;6058508;22;46277;-68
2023/10/30 07:43:52;;;;;;;1.60;0.70;;;19.50;74.50;;;;;;6026120;22;44879;-68
2023/10/30 07:46:19;;;;;;;1.13;0.60;;;19.40;75.70;;;;;;6055194;22;45251;-68
2023/10/30 07:48:46;;;;;;;3.95;0.90;;;19.40;74.70;;;;;;6068093;22;44734;-68
2023/10/30 07:51:29;;;;;;;2.03;0.60;;;19.50;75.00;;;;;;6057438;22;45678;-68
2023/10/30 07:54:14;;;;;;;3.70;0.55;;;19.40;75.00;;;;;;6050543;22;45163;-68
2023/10/30 08:20:31;;;;;;;2.42;0.60;;;19.50;75.30;;;;;;6228570;22;45334;-67
2023/10/30 08:23:26;;;;;;;1.30;0.60;;;19.50;75.30;;;;;;6042483;22;45310;-68
2023/10/30 08:25:53;;;;;;;1.15;0.70;;;19.50;75.40;;;;;;6078711;22;45758;-68
2023/10/30 08:28:36;;;;;;;2.05;0.60;;;19.50;75.10;;;;;;6070688;22;45236;-68
2023/10/30 08:31:09;;;;;;;1.30;0.60;;;19.50;75.30;;;;;;6055832;22;45277;-68
2023/10/30 08:34:11;;;;;;;0.85;0.40;;;19.50;75.40;;;;;;6072884;22;45225;-68
2023/10/30 08:37:03;;;;;;;1.00;0.60;;;19.50;75.40;;;;;;6029785;22;47357;-68
2023/10/30 08:40:19;;;;;;;0.68;0.40;;;19.40;75.30;;;;;;6058157;22;44900;-68
2023/10/30 08:43:07;;;;;;;1.50;0.60;;;19.50;75.70;;;;;;6083697;22;45459;-66
2023/10/30 08:45:34;;;;;;;0.95;0.47;;;19.50;75.90;;;;;;6072862;22;45249;-67
2023/10/30 08:48:15;;;;;;;0.65;0.40;;;19.50;75.90;;;;;;6093244;22;47972;-66
2023/10/30 08:50:42;;;;;;;1.20;0.50;;;19.50;76.50;;;;;;6064264;22;45160;-67
2023/10/30 08:53:29;;;;;;;1.30;0.63;;;19.50;76.60;;;;;;6051172;22;45271;-67
2023/10/30 08:55:57;;;;;;;2.13;0.77;;;19.50;77.00;;;;;;6069496;22;45193;-66
2023/10/30 08:58:24;;;;;;;1.95;0.63;;;19.50;76.90;;;;;;6072540;22;47125;-67
2023/10/30 09:01:08;;;;;;;1.20;0.63;;;19.50;77.40;;;;;;6069795;22;45228;-67
2023/10/30 09:03:38;;;;;;;2.70;0.70;;;19.50;77.10;;;;;;6061350;22;44916;-67
2023/10/30 09:08:46;;;;;;;1.27;0.63;;;19.50;77.80;;;;;;6017838;22;46200;-67
2023/10/30 09:11:15;;;;;;;1.38;0.60;;;19.50;77.80;;;;;;6051760;22;45187;-67
2023/10/30 09:13:42;;;;;;;1.33;0.50;;;19.50;77.80;;;;;;6059385;22;45079;-67
2023/10/30 09:16:09;;;;;;;1.90;0.68;;;19.50;77.80;;;;;;6050957;22;45023;-67
2023/10/30 09:18:39;;;;;;;0.55;0.40;;;19.50;77.70;;;;;;6047144;22;45902;-67
2023/10/30 09:23:46;;;;;;;1.17;0.57;;;19.50;77.50;;;;;;6032038;22;45328;-67
2023/10/30 09:26:15;;;;;;;1.85;0.50;;;19.50;77.10;;;;;;6055294;22;45043;-67
2023/10/30 09:28:43;;;;;;;1.98;0.80;;;19.50;77.20;;;;;;6044303;22;46560;-67
2023/10/30 09:31:41;;;;;;;2.35;0.80;;;19.50;77.40;;;;;;6043413;22;44835;-67
2023/10/30 09:34:36;;;;;;;1.70;0.70;;;19.50;77.00;;;;;;6030394;22;44816;-67
2023/10/30 09:37:33;;;;;;;1.27;0.60;;;19.50;77.10;;;;;;6057423;22;45142;-67
2023/10/30 09:40:13;;;;;;;1.30;0.40;;;19.50;76.90;;;;;;6038705;22;46395;-67
2023/10/30 09:43:09;;;;;;;1.30;0.63;;;19.60;77.00;;;;;;6101366;22;45185;-67
2023/10/30 09:45:51;;;;;;;1.30;0.65;;;19.50;77.40;;;;;;6046586;22;45244;-67
2023/10/30 09:48:44;;;;;;;2.75;0.77;;;19.60;77.30;;;;;;6054448;22;45225;-67
2023/10/30 09:51:38;;;;;;;0.98;0.50;;;19.60;77.20;;;;;;6051089;22;46289;-68
2023/10/30 09:54:09;;;;;;;1.10;0.50;;;19.50;77.80;;;;;;6042653;22;45369;-67
2023/10/30 09:57:16;;;;;;;2.22;0.70;;;19.50;77.80;;;;;;6057122;22;45201;-68
2023/10/30 10:00:10;;;;;;;0.93;0.50;;;19.50;77.80;;;;;;6040871;22;45450;-67
2023/10/30 10:02:37;;;;;;;0.30;0.30;;;19.50;77.80;;;;;;6036910;22;46174;-68
2023/10/30 10:05:16;;;;;;;0.73;0.40;;;19.60;77.90;;;;;;6069043;22;45277;-67
2023/10/30 10:07:54;;;;;;;1.08;0.43;;;19.50;78.00;;;;;;6066680;22;45231;-68
2023/10/30 10:10:55;;;;;;;0.80;0.40;;;19.50;78.40;;;;;;6040932;22;45257;-68
2023/10/30 10:13:23;;;;;;;1.00;0.50;;;19.60;78.50;;;;;;6023636;22;47545;-67
2023/10/30 10:15:53;;;;;;;1.25;0.47;;;19.50;78.30;;;;;;6066671;22;45065;-67
2023/10/30 10:18:28;;;;;;;0.80;0.50;;;19.50;78.50;;;;;;6063137;22;45087;-67
2023/10/30 10:21:08;;;;;;;0.80;0.40;;;19.50;78.00;;;;;;6082384;22;45252;-68
2023/10/30 10:24:02;;;;;;;1.58;0.73;;;19.50;77.80;;;;;;6049674;22;46363;-67
2023/10/30 10:26:52;;;;;;;1.17;0.45;;;19.50;77.80;;;;;;6060889;22;45091;-68
2023/10/30 10:29:41;;;;;;;0.50;0.30;;;19.50;77.80;;;;;;6045451;22;45192;-68
2023/10/30 10:32:12;;;;;;;1.20;0.50;;;19.50;77.80;;;;;;6060078;22;44965;-67
2023/10/30 10:35:07;;;;;;;1.10;0.63;;;19.50;77.80;;;;;;6086133;22;46247;-68
2023/10/30 10:37:35;;;;;;;0.80;0.40;;;19.50;77.80;;;;;;6064485;22;45188;-68
2023/10/30 10:40:53;;;;;;;1.58;0.50;;;19.60;78.00;;;;;;6038273;22;45212;-68
2023/10/30 10:43:33;;;;;;;1.42;0.40;;;19.60;77.90;;;;;;6046653;22;45209;-69
2023/10/30 10:46:25;;;;;;;1.00;0.40;;;19.60;77.90;;;;;;6083060;22;46224;-69
2023/10/30 10:48:54;;;;;;;2.70;0.60;;;19.60;77.90;;;;;;6076177;22;45294;-69
2023/10/30 10:51:41;;;;;;;1.10;0.50;;;19.60;77.90;;;;;;6065702;22;45299;-69
2023/10/30 10:57:19;;;;;;;0.77;0.40;;;19.60;77.90;;;;;;6068474;22;45711;-69
2023/10/30 11:00:18;;;;;;;0.85;0.40;;;19.60;78.00;;;;;;6083547;22;45019;-69
2023/10/30 11:03:15;;;;;;;1.40;0.40;;;19.60;77.90;;;;;;6047368;22;45226;-69
2023/10/30 11:06:14;;;;;;;1.17;0.40;;;19.60;77.90;;;;;;6069088;22;45237;-69
2023/10/30 11:12:48;;;;;;;1.88;0.30;;;19.60;78.00;;;;;;6045455;22;45031;-70
2023/10/30 11:15:34;;;;;;;0.40;0.32;;;19.60;77.90;;;;;;6070070;22;44978;-70
2023/10/30 11:18:35;;;;;;;1.30;0.50;;;19.50;77.80;;;;;;6057526;22;45343;-70
2023/10/30 11:21:36;;;;;;;0.77;0.35;;;19.60;77.90;;;;;;6059547;22;46423;-70
2023/10/30 11:24:04;;;;;;;1.20;0.30;;;19.60;77.90;;;;;;6045861;22;45186;-70
2023/10/30 11:26:44;;;;;;;0.10;0.10;;;19.60;77.90;;;;;;6073250;22;45061;-70
2023/10/30 11:29:53;;;;;;;0.77;0.32;;;19.60;77.90;;;;;;6079725;22;45391;-70
2023/10/30 11:32:32;;;;;;;0.68;0.30;;;19.60;77.90;;;;;;6063121;22;46349;-70
2023/10/30 11:35:14;;;;;;;0.20;0.20;;;19.60;77.90;;;;;;6073489;22;45123;-70
2023/10/30 11:38:02;;;;;;;1.50;0.30;;;19.60;77.90;;;;;;6052077;22;45212;-70
2023/10/30 11:41:11;;;;;;;0.38;0.38;;;19.60;78.00;;;;;;6057114;22;45262;-70
2023/10/30 11:44:07;;;;;;;0.40;0.20;;;19.50;77.80;;;;;;6089093;22;45612;-70
2023/10/30 11:46:39;;;;;;;0.57;0.30;;;19.50;77.80;;;;;;6047995;22;45210;-70
2023/10/30 11:49:52;;;;;;;0.75;0.32;;;19.50;78.40;;;;;;6050816;22;45230;-70
2023/10/30 11:55:47;;;;;;;0.60;0.30;;;19.50;77.80;;;;;;6026398;22;45284;-70
2023/10/30 11:58:38;;;;;;;0.40;0.20;;;19.50;78.10;;;;;;6068421;22;45098;-70
2023/10/30 12:01:26;;;;;;;0.52;0.25;;;19.60;78.50;;;;;;6047943;22;45027;-70
2023/10/30 12:04:09;;;;;;;0.75;0.25;;;19.50;78.00;;;;;;6057920;22;45190;-70
2023/10/30 12:06:49;;;;;;;0.57;0.20;;;19.60;78.90;;;;;;6065882;22;46035;-70
2023/10/30 12:09:16;;;;;;;0.10;0.10;;;19.60;79.10;;;;;;6052144;22;45050;-70
2023/10/30 12:11:53;;;;;;;1.95;0.40;;;19.60;79.30;;;;;;6042077;22;44777;-70
2023/10/30 12:14:35;;;;;;;1.45;0.30;;;19.50;79.40;;;;;;6057666;22;45011;-70
2023/10/30 12:17:15;;;;;;;0.20;0.20;;;19.50;79.80;;;;;;6057937;22;46236;-70
2023/10/30 12:20:15;;;;;;;0.30;0.30;;;19.50;79.70;;;;;;6055714;22;45185;-70
2023/10/30 12:22:56;;;;;;;0.45;0.20;;;19.50;80.80;;;;;;6089838;22;45075;-68
2023/10/30 12:25:32;;;;;;;0.17;0.10;;;19.50;80.00;;;;;;6047625;22;45229;-68
2023/10/30 12:28:27;;;;;;;0.43;0.25;;;19.50;80.00;;;;;;6080551;22;47170;-69
2023/10/30 12:30:58;;;;;;;0.68;0.20;;;19.50;80.30;;;;;;6029184;22;45254;-69
2023/10/30 12:33:26;;;;;;;0.30;0.10;;;19.50;79.50;;;;;;6068338;22;45188;-69
2023/10/30 12:35:59;;;;;;;0.20;0.20;;;19.50;79.60;;;;;;6072707;22;45250;-68
2023/10/30 12:38:50;;;;;;;0.70;0.30;;;19.50;79.60;;;;;;6055653;22;45707;-68
2023/10/30 12:41:17;;;;;;;0.30;0.30;;;19.60;79.50;;;;;;6048761;22;45286;-69
2023/10/30 12:44:02;;;;;;;3.85;0.20;;;19.60;79.50;;;;;;6106826;22;45190;-69
2023/10/30 12:47:00;;;;;;;0.52;0.38;;;19.60;79.60;;;;;;6066804;22;45256;-69
2023/10/30 12:49:49;;;;;;;0.73;0.28;;;19.50;79.40;;;;;;6080811;22;46787;-66
2023/10/30 12:52:26;;;;;;;0.63;0.28;;;19.50;79.40;;;;;;6016661;22;45366;-67
2023/10/30 12:54:52;;;;;;;0.38;0.20;;;19.50;79.40;;;;;;6081192;22;45174;-68
2023/10/30 12:57:37;;;;;;;0.60;0.20;;;19.50;79.40;;;;;;6086822;22;44972;-68
2023/10/30 13:00:05;;;;;;;0.50;0.30;;;19.50;79.80;;;;;;6049071;22;46566;-68
2023/10/30 13:02:52;;;;;;;0.30;0.30;;;19.50;79.70;;;;;;6061250;22;45022;-69
2023/10/30 13:08:35;;;;;;;0.93;0.40;;;19.50;79.60;;;;;;6024061;22;45221;-68
2023/10/30 13:11:30;;;;;;;0.32;0.30;;;19.50;79.90;;;;;;6060464;22;46251;-68
2023/10/30 13:13:57;;;;;;;0.82;0.38;;;19.60;80.20;;;;;;6037307;22;45158;-68
2023/10/30 13:16:25;;;;;;;0.65;0.30;;;19.50;80.20;;;;;;6063843;22;45180;-68
2023/10/30 13:19:16;;;;;;;0.25;0.20;;;19.50;80.40;;;;;;6058381;22;44971;-68
2023/10/30 13:22:23;;;;;;;0.25;0.25;;;19.50;81.30;;;;;;6058629;22;46290;-69
2023/10/30 13:27:41;;;;;;;0.52;0.30;;;19.50;81.20;;;;;;6097624;22;45353;-67
2023/10/30 13:30:30;;;;;;;0.47;0.30;;;19.50;81.70;;;;;;6064913;22;45166;-68
2023/10/30 13:33:08;;;;;;;0.50;0.40;;;19.50;81.90;;;;;;6041620;22;47473;-68
2023/10/30 13:35:35;;;;;;;0.30;0.20;;;19.50;81.40;;;;;;6034400;22;45387;-68
2023/10/30 13:38:14;;;;;;;0.55;0.45;;;19.50;81.20;;;;;;6055653;22;45263;-68
2023/10/30 13:40:59;;;;;;;1.35;0.30;;;19.50;80.80;;;;;;6067707;22;45250;-68
2023/10/30 13:43:53;;;;;;;0.30;0.30;;;19.50;80.90;;;;;;6063544;22;47204;-68
2023/10/30 13:46:29;;;;;;;0.70;0.30;;;19.50;80.90;;;;;;6064159;22;45111;-68
2023/10/30 13:49:04;;;;;;;0.43;0.22;;;19.50;81.00;;;;;;6059547;22;45209;-69
2023/10/30 13:52:00;;;;;;;0.30;0.20;;;19.60;80.70;;;;;;6076254;22;45339;-68
2023/10/30 13:54:46;;;;;;;0.20;0.20;;;19.60;81.10;;;;;;6050557;22;46296;-69
2023/10/30 13:57:41;;;;;;;1.30;0.40;;;19.50;81.00;;;;;;6069438;22;44849;-69
2023/10/30 14:00:22;;;;;;;0.70;0.30;;;19.50;80.80;;;;;;6050591;22;45118;-69
2023/10/30 14:03:18;;;;;;;0.63;0.30;;;19.60;81.00;;;;;;6066032;22;45372;-69
2023/10/30 14:06:13;;;;;;;0.30;0.30;;;19.60;80.90;;;;;;6058792;22;47202;-69
2023/10/30 14:08:57;;;;;;;0.90;0.28;;;19.60;81.10;;;;;;6062413;22;45026;-69
2023/10/30 14:11:46;;;;;;;1.05;0.17;;;19.60;81.10;;;;;;6036544;22;45085;-69
2023/10/30 14:14:13;;;;;;;0.20;0.20;;;19.60;81.20;;;;;;6036733;22;44848;-69
2023/10/30 14:16:52;;;;;;;0.30;0.30;;;19.60;81.20;;;;;;6058904;22;46095;-69
2023/10/30 14:19:19;;;;;;;0.32;0.28;;;19.60;81.40;;;;;;6032276;22;45350;-69
2023/10/30 14:22:03;;;;;;;0.63;0.20;;;19.60;81.40;;;;;;6102098;22;45205;-69
2023/10/30 14:24:43;;;;;;;0.50;0.30;;;19.60;81.80;;;;;;6035861;22;45024;-69
2023/10/30 14:27:38;;;;;;;0.38;0.30;;;19.50;82.20;;;;;;6098005;22;46402;-69
2023/10/30 14:30:06;;;;;;;0.40;0.20;;;19.60;82.40;;;;;;6059566;22;45417;-69
2023/10/30 14:33:06;;;;;;;0.55;0.30;;;19.60;82.60;;;;;;6067012;22;45370;-69
2023/10/30 14:35:34;;;;;;;0.28;0.22;;;19.50;82.70;;;;;;6032794;22;45168;-69
2023/10/30 14:38:18;;;;;;;1.13;0.70;;;19.50;82.10;;;;;;6063724;22;47921;-69
2023/10/30 14:40:48;;;;;;;0.30;0.28;;;19.60;82.80;;;;;;6038645;22;45222;-69
2023/10/30 14:47:00;;;;;;;0.47;0.20;;;19.50;82.10;;;;;;6013125;22;45237;-69
2023/10/30 14:50:07;;;;;;;0.43;0.30;;;19.60;82.00;;;;;;6072299;22;46256;-69
2023/10/30 14:53:08;;;;;;;0.35;0.22;;;19.60;82.00;;;;;;6036424;22;45212;-69
2023/10/30 14:55:38;;;;;;;0.77;0.35;;;19.60;81.70;;;;;;6049030;22;45224;-69
2023/10/30 14:58:04;;;;;;;0.38;0.20;;;19.60;81.50;;;;;;6039569;22;45158;-69
2023/10/30 15:00:31;;;;;;;0.55;0.30;;;19.60;81.60;;;;;;6049922;22;46266;-69
2023/10/30 15:03:11;;;;;;;0.28;0.28;;;19.60;81.70;;;;;;6052289;22;45171;-69
2023/10/30 15:05:58;;;;;;;0.20;0.20;;;19.60;81.90;;;;;;6054090;22;45124;-69
2023/10/30 15:08:49;;;;;;;0.35;0.20;;;19.60;81.50;;;;;;6056628;22;45103;-69
2023/10/30 15:11:16;;;;;;;0.50;0.22;;;19.60;81.70;;;;;;6074067;22;46272;-69
2023/10/30 15:14:01;;;;;;;1.55;0.40;;;19.60;81.70;;;;;;6064399;22;45085;-69
2023/10/30 15:16:28;;;;;;;0.63;0.40;;;19.60;81.70;;;;;;6047463;22;45080;-69
2023/10/30 15:18:57;;;;;;;0.30;0.22;;;19.60;81.80;;;;;;6065732;22;45145;-69
2023/10/30 15:21:25;;;;;;;0.63;0.40;;;19.60;81.70;;;;;;6053724;22;46312;-69
2023/10/30 15:23:55;;;;;;;2.00;0.38;;;19.60;82.20;;;;;;6049803;22;45325;-69
2023/10/30 15:26:51;;;;;;;0.32;0.30;;;19.60;82.30;;;;;;6060004;22;45177;-69
2023/10/30 15:29:27;;;;;;;0.20;0.20;;;19.60;82.60;;;;;;6056950;22;45208;-69